createdAt,value
2022-12-01T00:01:43.276Z,99.90
2022-12-01T00:04:11.916Z,99.90
2022-12-01T00:06:40.548Z,99.90
2022-12-01T00:09:27.913Z,99.90
2022-12-01T00:11:57.986Z,99.90
2022-12-01T00:14:26.676Z,99.90
2022-12-01T00:16:55.202Z,99.90
2022-12-01T00:19:25.822Z,99.90
2022-12-01T00:21:54.598Z,99.90
2022-12-01T00:24:23.740Z,99.90
2022-12-01T00:26:52.316Z,99.90
2022-12-01T00:29:22.284Z,99.90
2022-12-01T00:31:51.556Z,99.90
2022-12-01T00:34:23.124Z,99.90
2022-12-01T00:36:51.867Z,99.90
2022-12-01T00:39:20.359Z,99.90
2022-12-01T00:41:48.850Z,99.90
2022-12-01T00:44:17.512Z,99.90
2022-12-01T00:46:47.495Z,99.90
2022-12-01T00:49:16.155Z,99.90
2022-12-01T00:51:44.998Z,99.90
2022-12-01T00:54:13.413Z,99.90
2022-12-01T00:56:41.900Z,99.90
2022-12-01T00:59:10.564Z,99.90
2022-12-01T01:01:39.300Z,99.90
2022-12-01T01:04:09.556Z,99.90
2022-12-01T01:06:38.751Z,99.90
2022-12-01T01:09:07.255Z,99.90
2022-12-01T01:11:35.850Z,99.90
2022-12-01T01:14:04.783Z,99.90
2022-12-01T01:16:33.326Z,99.90
2022-12-01T01:19:02.009Z,99.90
2022-12-01T01:21:31.984Z,99.90
2022-12-01T01:24:00.602Z,99.90
2022-12-01T01:26:30.079Z,99.90
2022-12-01T01:28:59.645Z,99.90
2022-12-01T01:31:28.748Z,99.90
2022-12-01T01:33:57.401Z,99.90
2022-12-01T01:36:26.509Z,99.90
2022-12-01T01:38:56.496Z,99.90
2022-12-01T01:41:25.103Z,99.90
2022-12-01T01:43:54.310Z,99.90
2022-12-01T01:46:23.955Z,99.90
2022-12-01T01:48:53.652Z,99.90
2022-12-01T01:51:23.983Z,99.90
2022-12-01T01:54:15.875Z,99.90
2022-12-01T01:56:44.898Z,99.90
2022-12-01T01:59:14.299Z,99.90
2022-12-01T02:01:42.826Z,99.90
2022-12-01T02:04:11.419Z,99.90
2022-12-01T02:06:39.914Z,99.90
2022-12-01T02:09:08.452Z,99.90
2022-12-01T02:11:51.114Z,99.90
2022-12-01T02:14:35.019Z,99.90
2022-12-01T02:17:06.544Z,99.90
2022-12-01T02:19:44.137Z,99.90
2022-12-01T02:22:19.239Z,99.90
2022-12-01T02:25:00.640Z,99.90
2022-12-01T02:27:38.947Z,99.90
2022-12-01T02:30:09.483Z,99.90
2022-12-01T02:32:46.873Z,99.90
2022-12-01T02:35:18.135Z,99.90
2022-12-01T02:37:51.052Z,99.90
2022-12-01T02:40:21.902Z,99.90
2022-12-01T02:42:54.198Z,99.90
2022-12-01T02:45:27.830Z,99.90
2022-12-01T02:47:59.883Z,99.90
2022-12-01T02:50:29.990Z,99.90
2022-12-01T02:52:58.774Z,99.90
2022-12-01T02:55:27.280Z,99.90
2022-12-01T02:57:55.848Z,99.90
2022-12-01T03:00:24.586Z,99.90
2022-12-01T03:03:01.599Z,99.90
2022-12-01T03:05:33.394Z,99.90
2022-12-01T03:08:03.449Z,99.90
2022-12-01T03:10:54.910Z,99.90
2022-12-01T03:13:28.379Z,99.90
2022-12-01T03:16:01.491Z,99.90
2022-12-01T03:18:34.350Z,99.90
2022-12-01T03:21:05.858Z,99.90
2022-12-01T03:23:36.729Z,99.90
2022-12-01T03:26:08.349Z,99.90
2022-12-01T03:28:39.263Z,99.90
2022-12-01T03:31:08.942Z,99.90
2022-12-01T03:33:40.818Z,99.90
2022-12-01T03:36:12.147Z,99.90
2022-12-01T03:38:41.481Z,99.90
2022-12-01T03:41:12.096Z,99.90
2022-12-01T03:43:42.543Z,99.90
2022-12-01T03:46:12.434Z,99.90
2022-12-01T03:48:43.207Z,99.90
2022-12-01T03:51:15.417Z,99.90
2022-12-01T03:53:48.608Z,99.90
2022-12-01T03:56:19.208Z,99.90
2022-12-01T03:58:49.172Z,99.90
2022-12-01T04:01:17.823Z,99.90
2022-12-01T04:03:48.537Z,99.90
2022-12-01T04:06:17.333Z,99.90
2022-12-01T04:08:46.042Z,99.90
2022-12-01T04:11:32.961Z,99.90
2022-12-01T04:14:01.785Z,99.90
2022-12-01T04:16:30.667Z,99.90
2022-12-01T04:19:00.671Z,99.90
2022-12-01T04:21:29.321Z,99.90
2022-12-01T04:24:06.842Z,99.90
2022-12-01T04:26:36.613Z,99.90
2022-12-01T04:29:23.882Z,99.90
2022-12-01T04:31:52.434Z,99.90
2022-12-01T04:34:22.697Z,99.90
2022-12-01T04:36:51.194Z,99.90
2022-12-01T04:39:20.167Z,99.90
2022-12-01T04:41:48.730Z,99.90
2022-12-01T04:44:17.439Z,99.90
2022-12-01T04:46:45.917Z,99.90
2022-12-01T04:49:14.565Z,99.90
2022-12-01T04:51:44.624Z,99.90
2022-12-01T04:54:31.932Z,99.90
2022-12-01T04:57:00.481Z,99.90
2022-12-01T04:59:29.175Z,99.90
2022-12-01T05:01:58.303Z,99.90
2022-12-01T05:04:26.920Z,99.90
2022-12-01T05:06:57.066Z,99.90
2022-12-01T05:09:25.748Z,99.90
2022-12-01T05:11:54.189Z,99.90
2022-12-01T05:14:22.989Z,99.90
2022-12-01T05:16:51.509Z,99.90
2022-12-01T05:19:37.608Z,99.90
2022-12-01T05:22:07.570Z,99.90
2022-12-01T05:24:36.189Z,99.90
2022-12-01T05:27:04.760Z,99.90
2022-12-01T05:29:33.323Z,99.90
2022-12-01T05:32:03.340Z,99.90
2022-12-01T05:34:31.993Z,99.90
2022-12-01T05:37:00.474Z,99.90
2022-12-01T05:39:30.623Z,99.90
2022-12-01T05:41:59.267Z,99.90
2022-12-01T05:44:27.895Z,99.90
2022-12-01T05:46:56.536Z,99.90
2022-12-01T05:49:25.044Z,99.90
2022-12-01T05:51:53.596Z,99.90
2022-12-01T05:54:22.070Z,99.90
2022-12-01T05:56:52.064Z,99.90
2022-12-01T05:59:39.295Z,99.90
2022-12-01T06:02:07.823Z,99.90
2022-12-01T06:04:55.101Z,99.90
2022-12-01T06:07:25.824Z,99.90
2022-12-01T06:09:54.728Z,99.90
2022-12-01T06:12:24.773Z,99.90
2022-12-01T06:14:53.368Z,99.90
2022-12-01T06:17:22.045Z,99.90
2022-12-01T06:19:50.736Z,99.90
2022-12-01T06:22:19.702Z,99.90
2022-12-01T06:25:06.983Z,99.90
2022-12-01T06:27:37.224Z,99.90
2022-12-01T06:30:24.319Z,99.90
2022-12-01T06:32:53.148Z,99.90
2022-12-01T06:35:21.611Z,99.90
2022-12-01T06:37:50.096Z,99.90
2022-12-01T06:40:18.758Z,99.90
2022-12-01T06:42:48.673Z,99.90
2022-12-01T06:45:17.458Z,99.90
2022-12-01T06:47:48.331Z,99.90
2022-12-01T06:50:17.001Z,99.90
2022-12-01T06:52:45.667Z,99.90
2022-12-01T06:55:14.255Z,99.90
2022-12-01T06:57:43.539Z,99.90
2022-12-01T07:00:14.739Z,99.90
2022-12-01T07:02:43.704Z,99.90
2022-12-01T07:05:12.464Z,99.90
2022-12-01T07:07:41.199Z,99.90
2022-12-01T07:10:10.511Z,99.90
2022-12-01T07:12:39.150Z,99.90
2022-12-01T07:15:09.487Z,99.90
2022-12-01T07:17:39.577Z,99.90
2022-12-01T07:20:10.504Z,98.90
2022-12-01T07:22:39.829Z,98.00
2022-12-01T07:25:08.813Z,97.50
2022-12-01T07:27:37.627Z,97.20
2022-12-01T07:30:06.909Z,97.30
2022-12-01T07:32:35.377Z,97.30
2022-12-01T07:35:05.520Z,97.50
2022-12-01T07:37:34.183Z,97.70
2022-12-01T07:40:03.030Z,98.10
2022-12-01T07:42:31.706Z,98.20
2022-12-01T07:45:00.354Z,98.50
2022-12-01T07:47:29.053Z,98.80
2022-12-01T07:49:57.512Z,99.10
2022-12-01T07:52:27.620Z,99.50
2022-12-01T07:54:57.086Z,99.80
2022-12-01T07:57:25.689Z,99.80
2022-12-01T07:59:54.392Z,99.80
2022-12-01T08:02:23.196Z,99.80
2022-12-01T08:04:51.779Z,99.90
2022-12-01T08:07:20.321Z,99.90
2022-12-01T08:09:50.424Z,99.90
2022-12-01T08:12:19.209Z,99.90
2022-12-01T08:14:47.744Z,99.90
2022-12-01T08:17:16.159Z,99.90
2022-12-01T08:19:44.679Z,99.90
2022-12-01T08:22:31.848Z,99.90
2022-12-01T08:25:01.844Z,99.90
2022-12-01T08:27:30.515Z,99.90
2022-12-01T08:29:59.034Z,99.90
2022-12-01T08:32:27.534Z,99.90
2022-12-01T08:34:55.997Z,99.90
2022-12-01T08:37:24.755Z,99.90
2022-12-01T08:39:53.352Z,99.30
2022-12-01T08:42:23.309Z,99.00
2022-12-01T08:44:51.941Z,98.30
2022-12-01T08:47:20.542Z,97.90
2022-12-01T08:49:49.168Z,97.90
2022-12-01T08:52:18.933Z,96.70
2022-12-01T08:54:47.878Z,94.00
2022-12-01T08:57:16.523Z,92.40
2022-12-01T08:59:46.966Z,90.10
2022-12-01T09:02:17.044Z,83.80
2022-12-01T09:04:45.764Z,79.50
2022-12-01T09:07:19.081Z,76.00
2022-12-01T09:09:51.655Z,72.20
2022-12-01T09:12:20.365Z,68.30
2022-12-01T09:14:50.292Z,67.20
2022-12-01T09:17:18.934Z,65.10
2022-12-01T09:19:47.754Z,61.40
2022-12-01T09:22:23.142Z,62.00
2022-12-01T09:24:52.674Z,62.30
2022-12-01T09:27:21.209Z,61.10
2022-12-01T09:29:51.326Z,59.60
2022-12-01T09:32:20.088Z,59.50
2022-12-01T09:34:48.687Z,59.30
2022-12-01T09:37:17.211Z,57.70
2022-12-01T09:39:46.151Z,56.70
2022-12-01T09:42:16.285Z,56.40
2022-12-01T09:44:47.829Z,56.60
2022-12-01T09:47:21.058Z,57.40
2022-12-01T09:49:54.553Z,57.50
2022-12-01T09:52:24.288Z,56.80
2022-12-01T09:54:54.665Z,57.70
2022-12-01T09:57:28.595Z,58.50
2022-12-01T09:59:57.411Z,59.00
2022-12-01T10:02:30.908Z,59.10
2022-12-01T10:05:01.114Z,59.70
2022-12-01T10:07:32.156Z,60.50
2022-12-01T10:10:02.176Z,61.20
2022-12-01T10:12:32.936Z,62.50
2022-12-01T10:15:07.390Z,64.20
2022-12-01T10:17:40.226Z,64.80
2022-12-01T10:20:13.433Z,66.10
2022-12-01T10:22:58.689Z,66.90
2022-12-01T10:25:29.078Z,67.90
2022-12-01T10:28:04.671Z,69.00
2022-12-01T10:30:39.407Z,70.10
2022-12-01T10:33:14.616Z,70.90
2022-12-01T10:35:43.313Z,71.80
2022-12-01T10:38:14.763Z,72.50
2022-12-01T10:40:44.387Z,73.20
2022-12-01T10:43:14.321Z,73.90
2022-12-01T10:45:45.294Z,74.30
2022-12-01T10:48:19.244Z,74.60
2022-12-01T10:50:48.953Z,75.10
2022-12-01T10:53:36.867Z,75.40
2022-12-01T10:56:07.553Z,75.80
2022-12-01T10:58:44.015Z,76.50
2022-12-01T11:01:17.865Z,76.90
2022-12-01T11:03:50.996Z,77.40
2022-12-01T11:06:23.142Z,77.80
2022-12-01T11:08:57.291Z,77.90
2022-12-01T11:11:31.525Z,78.30
2022-12-01T11:14:01.671Z,78.80
2022-12-01T11:16:35.575Z,78.90
2022-12-01T11:19:11.100Z,79.00
2022-12-01T11:21:47.148Z,79.50
2022-12-01T11:24:26.877Z,79.90
2022-12-01T11:26:55.751Z,79.80
2022-12-01T11:29:29.264Z,79.70
2022-12-01T11:31:59.207Z,79.60
2022-12-01T11:34:32.401Z,79.70
2022-12-01T11:37:02.752Z,79.70
2022-12-01T11:39:33.259Z,79.90
2022-12-01T11:42:03.084Z,80.10
2022-12-01T11:44:50.935Z,80.50
2022-12-01T11:47:24.125Z,80.50
2022-12-01T11:49:56.827Z,80.70
2022-12-01T11:52:27.743Z,80.90
2022-12-01T11:54:57.039Z,81.20
2022-12-01T11:58:12.603Z,81.50
2022-12-01T12:00:15.448Z,81.80
2022-12-01T12:02:48.167Z,82.10
2022-12-01T12:05:41.062Z,82.30
2022-12-01T12:08:15.226Z,82.50
2022-12-01T12:10:49.494Z,82.90
2022-12-01T12:13:38.958Z,83.20
2022-12-01T12:16:11.911Z,83.50
2022-12-01T12:18:53.018Z,83.80
2022-12-01T12:21:31.324Z,84.20
2022-12-01T12:24:39.516Z,84.40
2022-12-01T12:27:11.482Z,84.20
2022-12-01T12:29:48.652Z,83.80
2022-12-01T12:32:27.643Z,83.50
2022-12-01T12:35:00.424Z,82.60
2022-12-01T12:37:33.039Z,81.80
2022-12-01T12:40:07.632Z,82.80
2022-12-01T12:42:40.338Z,83.70
2022-12-01T12:45:16.776Z,85.70
2022-12-01T12:47:55.534Z,88.00
2022-12-01T12:50:27.945Z,89.60
2022-12-01T12:52:58.785Z,90.60
2022-12-01T12:55:29.559Z,91.60
2022-12-01T12:57:59.560Z,92.60
2022-12-01T13:00:29.317Z,93.60
2022-12-01T13:03:17.783Z,94.70
2022-12-01T13:05:50.211Z,95.80
2022-12-01T13:17:10.606Z,99.80
2022-12-01T13:19:41.703Z,99.90
2022-12-01T13:22:13.176Z,99.90
2022-12-01T13:24:43.381Z,99.90
2022-12-01T13:27:33.368Z,99.90
2022-12-01T13:30:02.037Z,99.90
2022-12-01T13:32:33.472Z,99.90
2022-12-01T13:35:02.950Z,99.90
2022-12-01T13:37:50.086Z,99.90
2022-12-01T13:40:24.304Z,99.90
2022-12-01T13:43:17.532Z,99.90
2022-12-01T13:45:46.168Z,99.90
2022-12-01T13:48:28.999Z,99.90
2022-12-01T13:51:01.711Z,99.90
2022-12-01T13:53:31.562Z,99.90
2022-12-01T13:56:14.772Z,99.90
2022-12-01T13:58:47.652Z,99.90
2022-12-01T14:01:35.286Z,99.90
2022-12-01T14:04:23.583Z,99.90
2022-12-01T14:07:12.196Z,99.90
2022-12-01T14:09:42.197Z,99.90
2022-12-01T14:12:33.055Z,99.90
2022-12-01T14:15:04.308Z,99.90
2022-12-01T14:17:35.719Z,99.90
2022-12-01T14:20:08.563Z,99.90
2022-12-01T14:22:39.439Z,99.90
2022-12-01T14:25:22.739Z,99.90
2022-12-01T14:28:15.525Z,99.90
2022-12-01T14:31:05.646Z,99.90
2022-12-01T14:33:47.907Z,99.90
2022-12-01T14:45:28.395Z,99.90
2022-12-01T14:48:04.213Z,99.90
2022-12-01T14:50:42.228Z,99.90
2022-12-01T14:53:20.086Z,99.90
2022-12-01T14:55:52.075Z,99.90
2022-12-01T14:58:22.514Z,99.90
2022-12-01T15:00:57.147Z,99.90
2022-12-01T15:03:32.114Z,99.90
2022-12-01T15:06:01.138Z,99.90
2022-12-01T15:08:58.753Z,99.90
2022-12-01T15:11:23.054Z,99.90
2022-12-01T15:13:55.413Z,99.90
2022-12-01T15:16:25.012Z,99.90
2022-12-01T15:18:55.119Z,99.90
2022-12-01T15:21:25.112Z,99.90
2022-12-01T15:23:54.381Z,99.90
2022-12-01T15:26:24.208Z,99.90
2022-12-01T15:29:05.038Z,99.90
2022-12-01T15:31:35.618Z,99.90
2022-12-01T15:34:06.188Z,99.90
2022-12-01T15:36:34.777Z,99.90
2022-12-01T15:39:07.096Z,99.90
2022-12-01T15:41:38.241Z,99.90
2022-12-01T15:44:18.164Z,99.90
2022-12-01T15:46:46.868Z,99.90
2022-12-01T15:49:20.858Z,99.90
2022-12-01T15:51:50.481Z,99.90
2022-12-01T15:54:20.811Z,99.90
2022-12-01T15:56:52.527Z,99.90
2022-12-01T15:59:26.690Z,99.90
2022-12-01T16:01:56.963Z,99.90
2022-12-01T16:04:28.196Z,99.90
2022-12-01T16:07:00.719Z,99.90
2022-12-01T16:09:33.373Z,99.90
2022-12-01T16:12:19.964Z,99.90
2022-12-01T16:15:04.486Z,99.90
2022-12-01T16:17:42.516Z,99.90
2022-12-01T16:20:25.144Z,99.90
2022-12-01T16:22:56.932Z,99.90
2022-12-01T16:25:31.404Z,99.90
2022-12-01T16:28:00.176Z,99.90
2022-12-01T16:30:31.568Z,99.90
2022-12-01T16:33:04.213Z,99.90
2022-12-01T16:35:35.012Z,99.90
2022-12-01T16:38:06.922Z,99.90
2022-12-01T16:40:35.660Z,99.90
2022-12-01T16:43:04.208Z,99.90
2022-12-01T16:45:32.699Z,99.90
2022-12-01T16:48:06.189Z,99.90
2022-12-01T16:50:39.419Z,99.90
2022-12-01T16:53:08.003Z,99.90
2022-12-01T16:55:38.765Z,99.90
2022-12-01T16:58:07.409Z,99.90
2022-12-01T17:00:36.088Z,99.90
2022-12-01T17:03:04.767Z,99.90
2022-12-01T17:05:33.504Z,99.90
2022-12-01T17:08:03.444Z,99.90
2022-12-01T17:10:32.087Z,99.90
2022-12-01T17:13:00.648Z,99.90
2022-12-01T17:15:29.231Z,99.90
2022-12-01T17:17:57.696Z,99.90
2022-12-01T17:20:26.563Z,99.90
2022-12-01T17:22:55.145Z,99.90
2022-12-01T17:25:25.405Z,99.90
2022-12-01T17:27:54.137Z,99.90
2022-12-01T17:30:23.575Z,99.90
2022-12-01T17:32:52.227Z,99.90
2022-12-01T17:35:20.978Z,99.90
2022-12-01T17:37:49.476Z,99.90
2022-12-01T17:40:18.084Z,99.90
2022-12-01T17:42:51.183Z,99.90
2022-12-01T17:45:20.355Z,99.90
2022-12-01T17:47:53.654Z,99.90
2022-12-01T17:50:22.257Z,99.90
2022-12-01T17:52:50.928Z,99.90
2022-12-01T17:55:19.756Z,99.90
2022-12-01T17:57:49.956Z,99.90
2022-12-01T18:00:19.062Z,99.90
2022-12-01T18:02:48.324Z,99.90
2022-12-01T18:05:17.149Z,99.90
2022-12-01T18:07:45.838Z,99.90
2022-12-01T18:10:14.467Z,99.90
2022-12-01T18:12:43.076Z,99.90
2022-12-01T18:15:13.577Z,99.90
2022-12-01T18:17:42.468Z,99.90
2022-12-01T18:20:11.353Z,99.90
2022-12-01T18:22:39.829Z,99.90
2022-12-01T18:25:08.768Z,99.90
2022-12-01T18:27:40.374Z,99.90
2022-12-01T18:30:09.937Z,99.90
2022-12-01T18:32:40.196Z,99.90
2022-12-01T18:35:09.687Z,99.90
2022-12-01T18:37:39.451Z,99.90
2022-12-01T18:40:08.970Z,99.90
2022-12-01T18:42:37.735Z,99.90
2022-12-01T18:45:06.843Z,99.90
2022-12-01T18:47:35.509Z,99.90
2022-12-01T18:50:06.426Z,99.90
2022-12-01T18:52:36.403Z,99.90
2022-12-01T18:55:05.274Z,99.90
2022-12-01T18:57:33.930Z,99.90
2022-12-01T19:00:02.573Z,99.90
2022-12-01T19:02:31.271Z,99.90
2022-12-01T19:04:59.985Z,99.90
2022-12-01T19:07:30.692Z,99.90
2022-12-01T19:09:59.644Z,99.90
2022-12-01T19:12:28.261Z,99.90
2022-12-01T19:14:57.153Z,99.90
2022-12-01T19:17:25.869Z,99.90
2022-12-01T19:19:54.381Z,99.90
2022-12-01T19:22:23.077Z,99.90
2022-12-01T19:24:54.246Z,99.90
2022-12-01T19:27:23.151Z,99.90
2022-12-01T19:29:52.459Z,99.90
2022-12-01T19:32:21.419Z,99.90
2022-12-01T19:34:53.837Z,99.90
2022-12-01T19:37:22.863Z,99.90
2022-12-01T19:39:51.872Z,99.90
2022-12-01T19:42:22.139Z,99.90
2022-12-01T19:44:50.918Z,99.90
2022-12-01T19:47:22.408Z,99.90
2022-12-01T19:49:51.402Z,99.90
2022-12-01T19:52:19.912Z,99.90
2022-12-01T19:54:49.653Z,99.90
2022-12-01T19:57:18.408Z,99.90
2022-12-01T19:59:48.680Z,99.90
2022-12-01T20:02:17.854Z,99.90
2022-12-01T20:04:46.513Z,99.90
2022-12-01T20:07:15.071Z,99.90
2022-12-01T20:09:48.420Z,99.90
2022-12-01T20:12:18.824Z,99.90
2022-12-01T20:14:49.444Z,99.90
2022-12-01T20:17:18.183Z,99.90
2022-12-01T20:19:46.673Z,99.90
2022-12-01T20:22:15.146Z,99.90
2022-12-01T20:24:43.748Z,99.90
2022-12-01T20:27:12.308Z,99.90
2022-12-01T20:29:40.780Z,99.90
2022-12-01T20:32:11.461Z,99.90
2022-12-01T20:34:40.170Z,99.90
2022-12-01T20:37:08.584Z,99.90
2022-12-01T20:39:38.380Z,99.90
2022-12-01T20:42:07.390Z,99.90
2022-12-01T20:44:36.083Z,99.90
2022-12-01T20:47:04.783Z,99.90
2022-12-01T20:49:36.244Z,99.90
2022-12-01T20:52:05.609Z,99.90
2022-12-01T20:54:34.372Z,99.90
2022-12-01T20:57:03.362Z,99.90
2022-12-01T20:59:32.034Z,99.90
2022-12-01T21:02:00.583Z,99.90
2022-12-01T21:04:29.163Z,99.90
2022-12-01T21:06:59.641Z,99.90
2022-12-01T21:09:28.611Z,99.90
2022-12-01T21:12:15.624Z,99.90
2022-12-01T21:14:46.442Z,99.90
2022-12-01T21:17:21.225Z,99.90
2022-12-01T21:19:53.835Z,99.90
2022-12-01T21:22:23.883Z,99.90
2022-12-01T21:24:53.396Z,99.90
2022-12-01T21:27:22.152Z,99.90
2022-12-01T21:29:51.684Z,99.90
2022-12-01T21:32:21.057Z,99.90
2022-12-01T21:34:49.902Z,99.90
2022-12-01T21:37:21.725Z,99.90
2022-12-01T21:39:52.911Z,99.90
2022-12-01T21:42:22.509Z,99.90
2022-12-01T21:44:51.321Z,99.90
2022-12-01T21:47:21.358Z,99.90
2022-12-01T21:49:51.086Z,99.90
2022-12-01T21:52:20.508Z,99.90
2022-12-01T21:54:49.683Z,99.90
2022-12-01T21:57:41.115Z,99.90
2022-12-01T22:00:26.945Z,99.90
2022-12-01T22:03:01.723Z,99.90
2022-12-01T22:05:32.762Z,99.90
2022-12-01T22:08:09.371Z,99.90
2022-12-01T22:10:52.609Z,99.90
2022-12-01T22:13:23.582Z,99.90
2022-12-01T22:15:54.241Z,99.90
2022-12-01T22:18:24.439Z,99.90
2022-12-01T22:21:32.685Z,99.90
2022-12-01T22:24:03.702Z,99.90
2022-12-01T22:26:32.962Z,99.90
2022-12-01T22:29:01.556Z,99.90
2022-12-01T22:31:32.106Z,99.90
2022-12-01T22:34:21.406Z,99.90
2022-12-01T22:36:50.380Z,99.90
2022-12-01T22:39:26.404Z,99.90
2022-12-01T22:41:57.130Z,99.90
2022-12-01T22:44:27.096Z,99.90
2022-12-01T22:46:59.803Z,99.90
2022-12-01T22:49:28.550Z,99.90
2022-12-01T22:52:00.262Z,99.90
2022-12-01T22:54:30.303Z,99.90
2022-12-01T22:57:03.298Z,99.90
2022-12-01T22:59:34.253Z,99.90
2022-12-01T23:02:08.062Z,99.90
2022-12-01T23:04:40.061Z,99.90
2022-12-01T23:07:36.992Z,99.90
2022-12-01T23:10:12.399Z,99.90
2022-12-01T23:12:41.344Z,99.90
2022-12-01T23:15:24.618Z,99.90
2022-12-01T23:17:54.659Z,99.90
2022-12-01T23:20:33.916Z,99.90
2022-12-01T23:23:03.411Z,99.90
2022-12-01T23:25:32.219Z,99.90
2022-12-01T23:28:01.909Z,99.90
2022-12-01T23:30:30.751Z,99.90
2022-12-01T23:33:15.815Z,99.90
2022-12-01T23:35:47.184Z,99.90
2022-12-01T23:38:17.436Z,99.90
2022-12-01T23:40:46.142Z,99.90
2022-12-01T23:43:17.920Z,99.90
2022-12-01T23:45:46.793Z,99.90
2022-12-01T23:48:19.595Z,99.90
2022-12-01T23:50:48.851Z,99.90
2022-12-01T23:53:25.625Z,99.90
2022-12-01T23:55:54.273Z,99.90
2022-12-01T23:58:22.867Z,99.90
